Time;durP1;ratioP1;P1;durP2;ratioP2;P2;SDS_P1;SDS_P2;PMS_P1;PMS_P2;Temp;Humidity;BMP_temperature;BMP_pressure;BME280_temperature;BME280_humidity;BME280_pressure;Samples;Min_cycle;Max_cycle;Signal;HPM_P1;HPM_P2
2022/09/14 00:10:04;;;;;;;15.80;13.00;;;;;;;12.64;86.94;98511.92;446543;1275;141583;-63
2022/09/14 00:20:11;;;;;;;14.40;12.80;;;;;;;12.45;87.13;98497.09;445915;1274;143726;-61
2022/09/14 00:30:16;;;;;;;13.20;11.90;;;;;;;12.32;87.40;98487.30;446688;1274;142355;-61
2022/09/14 00:40:22;;;;;;;14.30;12.90;;;;;;;12.25;87.85;98485.66;446827;1274;142462;-61
2022/09/14 00:50:28;;;;;;;14.10;12.70;;;;;;;12.33;88.58;98478.30;445738;1275;143072;-62
2022/09/14 01:00:34;;;;;;;14.70;13.20;;;;;;;12.55;88.47;98471.11;446863;1273;143152;-62
2022/09/14 01:10:53;;;;;;;14.60;12.80;;;;;;;12.59;87.99;98468.47;446878;1274;142532;-61
2022/09/14 01:21:03;;;;;;;16.00;14.40;;;;;;;12.64;87.97;98469.80;446938;1273;142483;-63
2022/09/14 01:31:17;;;;;;;14.40;12.10;;;;;;;12.67;87.95;98467.16;446933;1273;195631;-61
2022/09/14 01:41:29;;;;;;;12.80;11.50;;;;;;;12.69;87.43;98462.48;446105;1273;142420;-61
2022/09/14 01:51:39;;;;;;;13.90;11.50;;;;;;;12.71;87.50;98466.16;446883;1273;145029;-62
2022/09/14 02:01:51;;;;;;;12.70;11.50;;;;;;;12.67;87.12;98459.59;446872;1273;143446;-62
2022/09/14 02:11:59;;;;;;;12.60;11.30;;;;;;;12.41;87.20;98446.55;446883;1273;142151;-62
2022/09/14 02:22:05;;;;;;;13.40;12.10;;;;;;;12.14;87.76;98443.88;446466;1274;142530;-62
2022/09/14 02:32:21;;;;;;;16.00;14.30;;;;;;;12.23;88.77;98432.13;446045;1274;141912;-62
2022/09/14 02:42:39;;;;;;;16.00;14.40;;;;;;;12.35;89.03;98424.39;446774;1273;186960;-62
2022/09/14 02:52:52;;;;;;;17.00;15.30;;;;;;;12.44;89.28;98413.73;446788;1274;186559;-62
2022/09/14 03:02:58;;;;;;;19.30;17.30;;;;;;;12.36;89.25;98408.70;441954;1273;145700;-59
2022/09/14 03:13:04;;;;;;;20.30;18.20;;;;;;;12.10;89.21;98395.36;446826;1273;142311;-61
2022/09/14 03:23:10;;;;;;;21.00;18.80;;;;;;;11.90;89.38;98393.23;446080;1274;142306;-62
2022/09/14 03:33:16;;;;;;;25.20;22.70;;;;;;;11.72;89.52;98389.05;446811;1272;141787;-61
2022/09/14 03:43:22;;;;;;;42.00;36.50;;;;;;;11.57;89.50;98383.55;446817;1274;142903;-61
2022/09/14 03:53:28;;;;;;;43.30;38.70;;;;;;;11.43;89.81;98390.34;446122;1274;142729;-62
2022/09/14 04:03:34;;;;;;;35.60;31.80;;;;;;;11.55;90.62;98393.52;445307;1273;186469;-62
2022/09/14 04:13:40;;;;;;;29.70;26.50;;;;;;;11.79;90.41;98392.15;446878;1273;143274;-61
2022/09/14 04:23:46;;;;;;;22.40;20.10;;;;;;;12.04;90.23;98397.98;446058;1274;142539;-64
2022/09/14 04:34:13;;;;;;;18.80;17.10;;;;;;;12.29;90.20;98401.30;446810;1274;142886;-63
2022/09/14 04:44:19;;;;;;;17.40;15.70;;;;;;;12.54;90.46;98401.61;445974;1274;143062;-63
2022/09/14 04:54:24;;;;;;;18.90;16.80;;;;;;;12.83;90.75;98397.27;446601;1274;142633;-63
2022/09/14 05:04:30;;;;;;;25.10;18.90;;;;;;;13.11;90.88;98392.43;446866;1273;144450;-63
2022/09/14 05:14:36;;;;;;;22.60;19.50;;;;;;;13.38;91.44;98397.61;446131;1273;144457;-62
2022/09/14 05:24:42;;;;;;;24.00;19.30;;;;;;;13.64;91.46;98406.52;446507;1274;142346;-62
2022/09/14 05:34:47;;;;;;;41.60;21.70;;;;;;;13.82;91.45;98411.10;446627;1274;142903;-62
2022/09/14 05:44:53;;;;;;;23.20;17.90;;;;;;;13.96;91.16;98407.44;445488;1276;142658;-62
2022/09/14 05:54:59;;;;;;;20.30;16.70;;;;;;;14.09;90.69;98408.02;446275;1276;145634;-61
2022/09/14 06:05:05;;;;;;;17.80;13.60;;;;;;;14.39;89.45;98410.49;445948;1274;142648;-61
2022/09/14 06:15:12;;;;;;;17.20;14.10;;;;;;;14.83;88.23;98415.05;446739;1274;142739;-62
2022/09/14 06:25:17;;;;;;;18.30;15.30;;;;;;;15.22;87.17;98410.20;446742;1274;142073;-63
2022/09/14 06:35:23;;;;;;;18.80;14.90;;;;;;;16.04;85.48;98422.08;445791;1276;142538;-63
2022/09/14 06:45:30;;;;;;;14.90;12.60;;;;;;;17.43;83.89;98429.26;446755;1274;142821;-63
2022/09/14 06:55:35;;;;;;;14.20;12.20;;;;;;;18.38;79.32;98429.67;440003;1274;143954;-61
2022/09/14 07:05:41;;;;;;;12.20;11.00;;;;;;;19.80;77.74;98432.20;430482;1274;142644;-62
2022/09/14 07:15:51;;;;;;;10.70;9.70;;;;;;;23.62;71.13;98441.13;446742;1274;143484;-62
2022/09/14 07:26:03;;;;;;;9.40;8.60;;;;;;;26.77;65.21;98434.93;446013;1274;142804;-61
2022/09/14 07:36:11;;;;;;;8.50;7.60;;;;;;;31.66;57.79;98426.23;446773;1274;142775;-61
2022/09/14 07:46:17;;;;;;;6.90;6.30;;;;;;;34.39;48.87;98412.76;446674;1273;142293;-63
2022/09/14 07:56:24;;;;;;;7.70;6.80;;;;;;;34.84;43.95;98421.96;445453;1277;142447;-63
2022/09/14 08:06:30;;;;;;;5.90;5.30;;;;;;;35.08;40.84;98420.04;446710;1274;141308;-63
2022/09/14 08:16:37;;;;;;;6.30;4.70;;;;;;;37.44;37.73;98422.31;446184;1276;142052;-61
2022/09/14 08:26:43;;;;;;;5.50;4.70;;;;;;;36.97;35.05;98416.21;445658;1275;142471;-62
2022/09/14 08:36:49;;;;;;;4.70;4.10;;;;;;;34.34;34.68;98416.48;446474;1274;141863;-62
2022/09/14 08:47:01;;;;;;;6.90;4.00;;;;;;;32.67;35.23;98413.92;446011;1274;1590597;-61
2022/09/14 08:57:15;;;;;;;4.90;4.10;;;;;;;29.01;37.37;98412.94;446648;1274;196434;-62
2022/09/14 09:07:31;;;;;;;12.40;4.20;;;;;;;25.95;40.43;98414.67;446717;1274;141157;-63
2022/09/14 09:17:42;;;;;;;3.90;3.00;;;;;;;25.17;41.62;98410.48;445701;1275;141110;-63
2022/09/14 09:27:48;;;;;;;5.80;2.00;;;;;;;24.87;42.58;98407.59;446656;1274;142230;-62
2022/09/14 09:37:53;;;;;;;7.70;3.30;;;;;;;24.40;42.82;98404.38;446742;1272;143368;-63
2022/09/14 09:48:08;;;;;;;3.90;1.50;;;;;;;23.59;43.90;98401.75;446785;1274;141751;-62
2022/09/14 09:58:28;;;;;;;5.90;1.90;;;;;;;23.77;44.44;98407.41;446819;1274;140649;-62
2022/09/14 10:08:39;;;;;;;4.70;2.00;;;;;;;23.52;44.42;98410.77;445362;1276;141975;-62
2022/09/14 10:18:48;;;;;;;3.80;1.50;;;;;;;22.99;44.68;98417.58;446413;1275;142584;-63
2022/09/14 10:28:54;;;;;;;6.60;1.70;;;;;;;22.26;45.58;98422.51;446448;1273;141199;-63
2022/09/14 10:39:15;;;;;;;4.70;1.40;;;;;;;21.77;46.44;98422.31;446389;1274;141400;-62
2022/09/14 10:49:36;;;;;;;3.50;1.90;;;;;;;21.47;46.95;98416.98;446878;1274;141616;-62
2022/09/14 10:59:52;;;;;;;3.30;1.20;;;;;;;20.59;47.86;98414.11;445767;1275;142908;-61
2022/09/14 11:10:05;;;;;;;7.30;2.10;;;;;;;20.62;48.44;98410.61;446495;1276;141302;-62
2022/09/14 11:20:24;;;;;;;3.40;1.20;;;;;;;20.57;48.74;98402.05;445827;1273;142167;-61
2022/09/14 11:30:38;;;;;;;2.20;1.20;;;;;;;20.92;48.97;98393.30;446832;1273;141508;-63
2022/09/14 11:40:47;;;;;;;4.80;1.50;;;;;;;20.81;48.79;98395.19;446819;1272;141456;-63
2022/09/14 11:50:59;;;;;;;7.00;2.10;;;;;;;20.70;49.03;98391.23;446021;1274;142862;-63
2022/09/14 12:01:27;;;;;;;4.50;1.40;;;;;;;20.60;49.06;98385.45;446162;1272;184479;-61
2022/09/14 12:11:35;;;;;;;8.10;1.90;;;;;;;20.62;49.58;98367.58;446010;1274;141772;-62
2022/09/14 12:21:42;;;;;;;4.50;1.60;;;;;;;21.18;49.30;98368.54;446712;1274;141949;-62
2022/09/14 12:32:22;;;;;;;2.30;1.50;;;;;;;21.50;48.82;98367.62;446735;1274;141979;-62
2022/09/14 12:42:31;;;;;;;4.80;1.30;;;;;;;21.63;48.67;98365.08;446731;1274;144661;-62
2022/09/14 12:52:44;;;;;;;3.00;1.20;;;;;;;21.39;48.55;98358.90;446719;1274;141747;-63
2022/09/14 13:03:05;;;;;;;4.00;1.90;;;;;;;21.20;48.99;98361.20;445930;1274;142350;-62
2022/09/14 13:13:25;;;;;;;5.10;1.40;;;;;;;21.15;48.99;98353.95;445825;1277;143203;-61
2022/09/14 13:23:36;;;;;;;2.50;1.40;;;;;;;20.94;49.26;98348.25;446025;1274;142552;-61
2022/09/14 13:33:48;;;;;;;4.40;1.30;;;;;;;20.71;49.99;98351.52;446768;1274;142529;-63
2022/09/14 13:43:56;;;;;;;15.40;2.00;;;;;;;20.62;50.39;98342.48;446886;1274;142066;-63
2022/09/14 13:54:16;;;;;;;;;;;;;;;20.66;50.74;98328.27;446881;1274;142074;-63
2022/09/14 14:04:27;;;;;;;6.60;1.40;;;;;;;20.65;50.66;98322.02;447089;1273;128819;-62
2022/09/14 14:14:33;;;;;;;3.80;1.40;;;;;;;20.31;50.48;98315.05;445797;1274;199916;-63
2022/09/14 14:24:38;;;;;;;3.30;1.20;;;;;;;19.87;50.91;98312.48;446340;1276;142560;-62
2022/09/14 14:35:14;;;;;;;1.70;1.10;;;;;;;19.96;51.22;98312.21;445917;1274;142516;-62
2022/09/14 14:45:25;;;;;;;7.00;1.10;;;;;;;19.97;51.67;98305.74;439837;1274;142637;-63
2022/09/14 14:55:31;;;;;;;3.60;0.90;;;;;;;19.92;51.79;98297.48;430493;1273;141257;-63
2022/09/14 15:05:41;;;;;;;5.90;1.20;;;;;;;19.82;52.01;98285.49;435740;1273;144575;-62
2022/09/14 15:15:46;;;;;;;3.30;1.10;;;;;;;19.66;52.69;98275.39;446797;1273;141657;-62
2022/09/14 15:25:53;;;;;;;3.20;1.20;;;;;;;19.81;53.15;98266.11;446727;1274;141199;-62
2022/09/14 15:36:00;;;;;;;1.20;0.90;;;;;;;19.66;53.39;98265.98;446731;1274;141870;-62
2022/09/14 15:46:05;;;;;;;4.00;1.10;;;;;;;19.49;54.30;98265.96;446743;1274;141122;-63
2022/09/14 15:56:13;;;;;;;3.70;1.30;;;;;;;19.17;55.16;98255.46;446179;1274;143388;-62
2022/09/14 16:06:18;;;;;;;3.70;2.10;;;;;;;18.82;56.45;98253.55;446984;1273;196368;-62
2022/09/14 16:16:24;;;;;;;4.60;1.10;;;;;;;18.51;57.58;98250.46;446935;1274;142565;-62
2022/09/14 16:26:32;;;;;;;6.80;2.00;;;;;;;18.21;59.00;98249.20;446214;1274;142084;-63
2022/09/14 16:36:40;;;;;;;2.20;1.40;;;;;;;18.00;60.05;98246.26;446970;1274;142528;-63
2022/09/14 16:46:47;;;;;;;7.10;1.70;;;;;;;17.75;60.69;98246.30;446937;1272;142839;-66
2022/09/14 16:56:55;;;;;;;5.70;1.90;;;;;;;17.56;61.93;98238.71;445823;1274;142281;-62
2022/09/14 17:07:01;;;;;;;5.30;1.90;;;;;;;17.36;62.87;98240.10;446924;1274;144332;-62
2022/09/14 17:17:07;;;;;;;5.60;2.00;;;;;;;17.16;63.64;98241.52;446212;1274;143409;-61
2022/09/14 17:27:13;;;;;;;9.60;4.90;;;;;;;16.90;64.70;98229.81;446940;1274;143409;-61
2022/09/14 17:37:19;;;;;;;6.90;4.80;;;;;;;16.64;65.82;98233.42;446952;1274;142346;-62
2022/09/14 17:47:25;;;;;;;8.50;6.00;;;;;;;16.42;66.50;98244.69;445891;1275;145323;-62
2022/09/14 17:57:30;;;;;;;6.60;4.50;;;;;;;16.25;67.39;98253.98;446789;1273;142258;-63
2022/09/14 18:07:36;;;;;;;5.10;4.20;;;;;;;16.07;67.96;98252.69;442283;1273;143169;-63
2022/09/14 18:17:43;;;;;;;6.60;3.10;;;;;;;15.94;68.67;98244.61;429824;1273;145954;-60
2022/09/14 18:27:49;;;;;;;6.80;4.10;;;;;;;15.79;69.46;98234.01;430749;1274;141959;-62
2022/09/14 18:37:55;;;;;;;7.40;5.70;;;;;;;15.63;70.36;98223.48;431013;1274;145566;-59
2022/09/14 18:48:02;;;;;;;4.00;3.30;;;;;;;15.51;71.04;98223.47;430605;1274;211649;-63
2022/09/14 18:58:08;;;;;;;11.20;9.50;;;;;;;15.39;71.73;98223.55;435498;1274;141192;-62
2022/09/14 19:08:13;;;;;;;9.30;5.90;;;;;;;15.32;72.28;98207.48;432743;1274;146118;-60
2022/09/14 19:18:19;;;;;;;17.80;11.70;;;;;;;15.22;72.93;98204.88;430526;1274;142941;-60
2022/09/14 19:28:25;;;;;;;21.80;12.80;;;;;;;15.13;73.53;98194.81;431362;1274;142444;-63
2022/09/14 19:38:31;;;;;;;22.60;12.10;;;;;;;15.10;74.21;98189.49;430109;1274;143726;-62
2022/09/14 19:48:37;;;;;;;15.90;11.10;;;;;;;15.08;74.69;98184.63;431769;1274;142646;-63
2022/09/14 19:58:45;;;;;;;18.20;11.50;;;;;;;15.07;75.27;98188.46;431513;1274;143207;-62
2022/09/14 20:08:53;;;;;;;17.20;11.00;;;;;;;15.08;75.72;98191.38;430632;1274;142723;-59
2022/09/14 20:19:04;;;;;;;16.20;11.60;;;;;;;15.06;76.06;98182.61;430489;1276;141889;-59
2022/09/14 20:29:10;;;;;;;21.70;12.90;;;;;;;15.03;76.42;98183.40;430474;1274;142770;-64
2022/09/14 20:39:16;;;;;;;17.10;10.90;;;;;;;15.06;76.84;98175.17;430866;1274;142871;-62
2022/09/14 20:49:23;;;;;;;14.40;11.10;;;;;;;15.04;77.27;98170.68;428965;1276;1542897;-63
2022/09/14 20:59:29;;;;;;;13.40;11.90;;;;;;;14.99;77.69;98167.59;429942;1276;145331;-64
2022/09/14 21:09:36;;;;;;;14.10;12.00;;;;;;;15.00;78.17;98167.66;430816;1274;141961;-62
2022/09/14 21:19:41;;;;;;;12.30;9.80;;;;;;;15.01;78.30;98159.47;430984;1274;142675;-60
2022/09/14 21:29:49;;;;;;;10.00;8.60;;;;;;;14.97;78.65;98157.93;430415;1274;146837;-60
2022/09/14 21:39:56;;;;;;;14.70;12.10;;;;;;;14.93;79.03;98152.23;432554;1274;147283;-62
2022/09/14 21:50:02;;;;;;;10.30;9.20;;;;;;;14.96;79.71;98150.41;435231;1273;143038;-62
2022/09/14 22:00:11;;;;;;;11.10;9.20;;;;;;;15.01;80.16;98133.05;447018;1274;142158;-62
2022/09/14 22:10:18;;;;;;;10.60;9.40;;;;;;;15.01;80.61;98120.02;446949;1274;142252;-62
2022/09/14 22:20:23;;;;;;;11.20;8.70;;;;;;;15.01;81.00;98117.91;446202;1274;141667;-62
2022/09/14 22:30:29;;;;;;;11.60;10.40;;;;;;;15.01;81.54;98110.84;446968;1274;142844;-61
2022/09/14 22:40:35;;;;;;;11.40;9.80;;;;;;;15.00;81.91;98109.36;446707;1274;143893;-62
2022/09/14 22:50:42;;;;;;;9.30;8.40;;;;;;;15.01;82.19;98106.94;445937;1274;142639;-63
2022/09/14 23:00:48;;;;;;;10.50;9.50;;;;;;;14.97;82.65;98104.33;446269;1275;141752;-61
2022/09/14 23:10:54;;;;;;;14.20;9.90;;;;;;;14.96;82.99;98099.17;446301;1274;195242;-62
2022/09/14 23:21:04;;;;;;;9.80;8.90;;;;;;;14.98;83.27;98094.25;446659;1274;143519;-63
2022/09/14 23:31:09;;;;;;;11.10;10.00;;;;;;;14.92;83.56;98082.33;439682;1274;142582;-62
2022/09/14 23:41:15;;;;;;;12.50;10.40;;;;;;;14.81;83.82;98081.67;444754;1274;185013;-62
2022/09/14 23:51:21;;;;;;;12.20;10.90;;;;;;;14.77;84.24;98084.95;446855;1274;142473;-63
